This is the latest recevied weather packets stored in our database for station/object DC1MAK-13. If no packets are shown the sender has not sent any weather packets the latest 10 day(s).
| Time | Temp. | Humidity | Pressure | Rain* | Wind** | Luminosity | Snow |
|---|---|---|---|---|---|---|---|
| 1787661347 | 20.56° C | 71% | 984.7 hPa | - | - | - | - |
| 1787661047 | 20.56° C | 72% | 984.7 hPa | - | - | - | - |
| 1787660738 | 20° C | 74% | 984.8 hPa | - | - | - | - |
| 1787660435 | 20° C | 71% | 984.8 hPa | - | - | - | - |
| 1787660131 | 21.67° C | 68% | 984.8 hPa | - | - | - | - |
| 1787659527 | 20.56° C | 73% | 984.9 hPa | - | - | - | - |
| 1787659227 | 19.44° C | 79% | 984.8 hPa | - | - | - | - |
| 1787659215 | 19.44° C | 79% | 984.8 hPa | - | - | - | - |
| 1787658918 | 18.89° C | 83% | 984.8 hPa | - | - | - | - |
| 1787658614 | 18.33° C | 85% | 984.8 hPa | - | - | - | - |
| 1787658311 | 18.33° C | 86% | 984.8 hPa | - | - | - | - |
| 1787658001 | 17.78° C | 89% | 984.7 hPa | - | - | - | - |
| 1787657707 | 17.78° C | 89% | 984.6 hPa | - | - | - | - |
| 1787657698 | 17.78° C | 89% | 984.6 hPa | - | - | - | - |
| 1787657400 | 17.78° C | 92% | 984.5 hPa | - | - | - | - |
| 1787657394 | 17.78° C | 92% | 984.5 hPa | - | - | - | - |
| 1787657097 | 17.78° C | 90% | 984.5 hPa | - | - | - | - |
| 1787656794 | 17.78° C | 91% | 984.5 hPa | - | - | - | - |
| 1787656490 | 17.78° C | 90% | 984.5 hPa | - | - | - | - |
| 1787656181 | 18.33° C | 91% | 984.4 hPa | - | - | - | - |
| 1787655887 | 18.33° C | 90% | 984.4 hPa | - | - | - | - |
| 1787655580 | 18.33° C | 89% | 984.4 hPa | - | - | - | - |
| 1787655276 | 17.78° C | 89% | 984.4 hPa | - | - | - | - |
| 1787654973 | 17.78° C | 88% | 984.5 hPa | - | - | - | - |
| 1787654367 | 17.78° C | 87% | 984.4 hPa | - | - | - | - |
* Rain since midnight (hover to see other rain measurements)
** Current wind speed in m/s (hover to see current wind gust speed)